logo
Games released in Aug 2014
# Game Release date
Price
Score rank
(Userscore / Metascore)
Owners
Playtime (Median)
Developer(s)
Publisher(s)
1 Lethal League Aug 27, 2014 $13.99N/A (N/A/82%)500,000 .. 1,000,00000:00 (00:00)Team ReptileTeam Reptile
2 Super Time Force Ultra Aug 25, 2014 $14.99N/A (N/A/80%)100,000 .. 200,00000:00 (00:00)Capybara GamesCapybara Games
3 Guacamelee! Super Turbo Championship Edition Aug 21, 2014 $14.99N/A (N/A/80%)200,000 .. 500,00000:00 (00:00)DrinkBox StudiosDrinkBox Studios
4 The Journey Down: Chapter Two Aug 25, 2014 $19.99N/A (N/A/78%)100,000 .. 200,00000:00 (00:00)SkyGoblinSkyGoblin
5 Five Nights at Freddy's Aug 19, 2014 $4.99N/A (N/A/78%)500,000 .. 1,000,00000:00 (00:00)Scott CawthonScott Cawthon
6 GoD Factory: Wingmen Aug 29, 2014 $19.99N/A (N/A/76%)20,000 .. 50,00000:00 (00:00)Nine Dots StudioNine Dots Studio
7 Metro: Last Light Redux Aug 25, 2014 $19.99N/A (N/A/76%)2,000,000 .. 5,000,00000:00 (00:00)4A GamesDeep Silver
8 Haunted Aug 18, 2014 $14.99N/A (N/A/76%)20,000 .. 50,00000:00 (00:00)dtp EntertainmentViva Media
9 Road Not Taken Aug 5, 2014 $14.99N/A (N/A/75%)20,000 .. 50,00000:00 (00:00)Spry Fox LLCSpry Fox LLC
10 King's Bounty: Dark Side Aug 19, 2014 $12.99N/A (N/A/73%)100,000 .. 200,00000:00 (00:00)1C-SoftClub1C Entertainment
11 To End All Wars Aug 29, 2014 $39.99N/A (N/A/71%)0 .. 20,00000:00 (00:00)AgeodSlitherine Ltd.
12 The Golf Club Aug 19, 2014 $29.99N/A (N/A/70%)20,000 .. 50,00000:00 (00:00)HB StudiosHB Studios
13 Bravada Aug 22, 2014 $9.99N/A (N/A/70%)50,000 .. 100,00000:00 (00:00)Interbellum teamInterbellum team
14 Lichdom: Battlemage Aug 26, 2014 $9.99N/A (N/A/69%)100,000 .. 200,00000:00 (00:00)XaviantXaviant Games
15 Shadowgate Aug 21, 2014 $14.99N/A (N/A/68%)100,000 .. 200,00000:00 (00:00)ZojoiZojoi
16 Risen 3 - Titan Lords Aug 12, 2014 $14.99N/A (N/A/65%)200,000 .. 500,00000:00 (00:00)Piranha BytesDeep Silver
17 Eidolon Aug 1, 2014 $15N/A (N/A/64%)50,000 .. 100,00000:00 (00:00)Badru, Michael Bell, Zoe Vartanian, Adam Murgittroyd, Meagan Malone, Jeffrey Klinicke, Shadie Hijazi, Jacob Leach, Aron Miller, Isa HutchinsonIce Water Games
18 Echelon: Wind Warriors Aug 8, 2014 $3.99N/A (N/A/63%)0 .. 20,00000:00 (00:00)MADia EntertainmentBuka Entertainment
19 Space Hack Aug 5, 2014 $4.99N/A (N/A/63%)200,000 .. 500,00000:00 (00:00)Meridian4
20 Curse: The Eye of Isis Aug 22, 2014 $2.99N/A (N/A/63%)0 .. 20,00000:00 (00:00)Asylum entertainmentMicroids
21 Chess 2: The Sequel Aug 19, 2014 $5.99N/A (N/A/62%)0 .. 20,00000:00 (00:00)Ludeme Games, Sirlin GamesLudeme Games
22 Orbital Gear Aug 7, 2014 $9.99N/A (N/A/59%)200,000 .. 500,00000:00 (00:00)Night NodeNight Node
23 The Sun at Night Aug 1, 2014 $4.99N/A (N/A/59%)0 .. 20,00000:00 (00:00)Minicore StudiosMinicore Studios
24 Sacred 3 Aug 5, 2014 $14.99N/A (N/A/57%)200,000 .. 500,00000:00 (00:00)Keen GamesDeep Silver
25 Mega Coin Squad Aug 15, 2014 $14.99N/A (N/A/56%)0 .. 20,00000:00 (00:00)Big Pixel StudiosAdult Swim Games
26 The Counting Kingdom Aug 5, 2014 $6.99N/A (N/A)0 .. 20,00000:00 (00:00)Little Worlds InteractiveLittle Worlds Interactive
27 Heroes & Legends: Conquerors of Kolhar Aug 21, 2014 $4.99N/A (N/A)20,000 .. 50,00000:00 (00:00)Cuve GamesPhoenix Online Publishing
28 Frontline : Road to Moscow Aug 8, 2014 $9.99N/A (N/A)0 .. 20,00000:00 (00:00)88mmSlitherine Ltd.
29 Mountain Aug 18, 2014 $0.99N/A (N/A)200,000 .. 500,00000:09 (00:03)David OReillyDouble Fine Presents, David OReilly
30 Darkwind: War on Wheels Aug 22, 2014 FreeN/A (N/A)200,000 .. 500,00000:00 (00:00)Psychic Games Ltd.Psychic Games Ltd.
31 Character Creator - Graphics Pack Aug 22, 2014 $5.99N/A (N/A)0 .. 20,00000:00 (00:00)RoenciaRoencia Game Creators
32 Back to Bed Aug 6, 2014 $1.49N/A (N/A)500,000 .. 1,000,00000:00 (00:00)Bedtime Digital GamesBedtime Digital Games
33 Jet Gunner Aug 4, 2014 $0.99N/A (N/A)100,000 .. 200,00000:00 (00:00)Sinclair StrangeSinclair Strange
34 Blackbay Asylum Aug 1, 2014 $19.99N/A (N/A)200,000 .. 500,00000:00 (00:00)TAD Productions ABKISS ltd
35 Heroes of a Broken Land Aug 7, 2014 $14.99N/A (N/A)0 .. 20,00000:00 (00:00)Winged Pixel Inc.Winged Pixel Inc.
36 Appointment With FEAR Aug 26, 2014 $4.99N/A (N/A)0 .. 20,00000:00 (00:00)Tin Man GamesTin Man Games
37 Jamsouls Aug 24, 2014 $3.99N/A (N/A)0 .. 20,00000:00 (00:00)Chromatic DreamChromatic Dream
38 Bird Assassin Aug 27, 2014 $1.99N/A (N/A)100,000 .. 200,00000:00 (00:00)Social Loner StudiosSocial Loner Studios
39 Taxi Aug 22, 2014 $4.99N/A (N/A)20,000 .. 50,00000:00 (00:00)ExcaliburExcalibur Publishing
40 Trace Vector Aug 19, 2014 $6.99N/A (N/A)0 .. 20,00000:00 (00:00)Vexel GamesVexel Games
41 Draconian Wars Aug 28, 2014 $5.99N/A (N/A)0 .. 20,00000:00 (00:00)Kardfy StudiosKardfy Studios
42 Global Outbreak: Doomsday Edition Aug 11, 2014 $8.99N/A (N/A)0 .. 20,00000:00 (00:00)ShortRound GamesShortRound Games
43 Cubesis Aug 22, 2014 $4.99N/A (N/A)0 .. 20,00000:00 (00:00)Wonderful Tree StudioWastelands Interactive
44 Ultra Street Fighter IV Aug 7, 2014 $29.99N/A (N/A)500,000 .. 1,000,00000:53 (00:35)CapcomCapcom
45 Grim Legends: The Forsaken Bride Aug 21, 2014 $9.99N/A (N/A)100,000 .. 200,00000:00 (00:00)Artifex MundiArtifex Mundi
46 Platypus II Aug 15, 2014 $6.99N/A (N/A)200,000 .. 500,00000:00 (00:00)IdigiconKISS ltd
47 Crazy Plant Shop Aug 4, 2014 $4.99N/A (N/A)20,000 .. 50,00000:00 (00:00)Filament GamesFilament Games
48 Aritana and the Harpy's Feather Aug 15, 2014 $9.99N/A (N/A)0 .. 20,00000:00 (00:00)Duaik EntretenimentoDuaik Entretenimento
49 Metro 2033 Redux Aug 25, 2014 $19.99N/A (N/A)2,000,000 .. 5,000,00001:09 (00:46)4A GamesDeep Silver
50 Divine Souls F2P MMO Aug 15, 2014 FreeN/A (N/A)500,000 .. 1,000,00000:00 (00:00)GamePrixSuba Games
51 Stonerid Aug 15, 2014 $0.49N/A (N/A)20,000 .. 50,00000:00 (00:00)EnitvareEnitvare
52 Dusk 12 Aug 22, 2014 $3.99N/A (N/A)50,000 .. 100,00000:00 (00:00)Orion GamesBuka Entertainment
53 Hangeki Aug 11, 2014 $9.99N/A (N/A)0 .. 20,00000:00 (00:00)PentaveraPentavera
54 Platypus Aug 15, 2014 $6.99N/A (N/A)100,000 .. 200,00000:00 (00:00)IdigiconKISS ltd
55 Pixeluvo Aug 14, 2014 $34.99N/A (N/A)0 .. 20,00000:00 (00:00)PictopotamusPictopotamus
56 Wyv and Keep: The Temple of the Lost Idol Aug 8, 2014 $14.99N/A (N/A)20,000 .. 50,00000:00 (00:00)A Jolly CorpseA Jolly Corpse
57 Deep Under the Sky Aug 22, 2014 $9.99N/A (N/A)20,000 .. 50,00000:00 (00:00)RichMakeGame, Colin NorthwayNorthway Games
58 Tiestru Aug 20, 2014 $9.99N/A (N/A)20,000 .. 50,00000:00 (00:00)Warlock ArtsWarlock Arts
59 Battle Islands Aug 6, 2014 FreeN/A (N/A)500,000 .. 1,000,00000:00 (00:00)DR Studios505 Games
60 Depth Hunter 2: Deep Dive Aug 20, 2014 $14.99N/A (N/A)200,000 .. 500,00000:00 (00:00)Biart Company LLCBiart Company LLC
61 Trainz Trouble Aug 26, 2014 $1.99N/A (N/A)0 .. 20,00000:00 (00:00)N3V GamesN3V Games
62 Royal Quest Aug 6, 2014 FreeN/A (N/A)500,000 .. 1,000,00000:00 (00:00)Katauri1C Online Games
63 Victory At Sea Aug 8, 2014 $24.99N/A (N/A)50,000 .. 100,00000:00 (00:00)Evil Twin ArtworksEvil Twin Artworks
64 Nux Aug 15, 2014 $6.99N/A (N/A)100,000 .. 200,00000:00 (00:00)IdigiconKISS ltd
65 Dungeons: The Eye of Draconus Aug 1, 2014 $2.99N/A (N/A)20,000 .. 50,00000:00 (00:00)SuckerFree GamesSuckerFree Games
66 NOBUNAGA'S AMBITION: Souzou (Traditional Chinese version) Aug 2014 $24.99N/A (N/A)20,000 .. 50,00000:11 (00:11)KOEI TECMO GAMES CO., LTD.KOEI TECMO GAMES CO., LTD.
67 See No Evil Aug 25, 2014 $0.49N/A (N/A)100,000 .. 200,00000:00 (00:00)Gabriel PriskeNoetic
68 Amerzone: The Explorer’s Legacy Aug 22, 2014 $4.99N/A (N/A)0 .. 20,00000:00 (00:00)MicroidsMicroids
69 New York Bus Simulator Aug 6, 2014 $9.99N/A (N/A)0 .. 20,00000:00 (00:00)TML-StudiosAerosoft GmbH
70 Power-Up Aug 29, 2014 $2.99N/A (N/A)100,000 .. 200,00000:00 (00:00)Psychotic PsoftwarePsychotic Psoftware
71 Psichodelya Aug 8, 2014 $1.99N/A (N/A)100,000 .. 200,00000:00 (00:00)Ennoble StudiosKISS ltd
72 Edolie Aug 15, 2014 $9.99N/A (N/A)0 .. 20,00000:00 (00:00)Eridani GamesDegica
73 Depression Quest Aug 11, 2014 FreeN/A (N/A)200,000 .. 500,00000:00 (00:00)The Quinnspiracy, Patrick Lindsey, Isaac SchanklerThe Quinnspiracy
74 Commando Jack Aug 22, 2014 $7.99N/A (N/A)200,000 .. 500,00000:00 (00:00)Colossal GamesKISS ltd
75 Airship Dragoon Aug 26, 2014 $9.99N/A (N/A)0 .. 20,00000:00 (00:00)YorkshireRiflesYorkshireRifles
76 From the Depths Aug 7, 2014 $14.99N/A (N/A)200,000 .. 500,00000:00 (00:00)Brilliant Skies Ltd.Brilliant Skies Ltd.
77 Epigenesis Aug 1, 2014 FreeN/A (N/A)200,000 .. 500,00000:00 (00:00)Dead Shark TriplepunchDead Shark Triplepunch
78 OTTTD Aug 6, 2014 $7.99N/A (N/A)50,000 .. 100,00000:00 (00:00)SMG StudioSMG Studio
79 Advanced Tactics Gold Aug 15, 2014 $29.99N/A (N/A)0 .. 20,00000:00 (00:00)VR DesignsSlitherine Ltd.
80 The Terminal 2 Aug 8, 2014 $4.99N/A (N/A)0 .. 20,00000:00 (00:00)FrameLineNetwork Kft.FrameLineNetwork Kft.
81 NoLimits 2 Roller Coaster Simulation Aug 21, 2014 $39.99N/A (N/A)20,000 .. 50,00000:00 (00:00)Ole LangeMad Data GmbH & Co. KG
82 War on Folvos Aug 8, 2014 $3.99N/A (N/A)20,000 .. 50,00000:00 (00:00)Lonely TroopsLonely Troops
83 Biglands: A Game Made By Kids Aug 25, 2014 $4.99N/A (N/A)0 .. 20,00000:00 (00:00)GammaLateralGammaLateral
84 Guns and Robots Aug 4, 2014 FreeN/A (N/A)1,000,000 .. 2,000,00000:00 (00:00)Masthead Studios LtdMasthead Studios Ltd, Thegamewallstudios, Gamigo AG
85 Toast Time Aug 27, 2014 $4.99N/A (N/A)20,000 .. 50,00000:00 (00:00)Force Of HabitForce Of Habit
86 Kick-Ass 2 Aug 15, 2014 $1.99N/A (N/A)20,000 .. 50,00000:00 (00:00)Freedom FactoryUnited Independent Entertainment GmbH
87 Space Galaxy - Graphics Pack Aug 22, 2014 $14.99N/A (N/A)0 .. 20,00000:00 (00:00)RoenciaRoencia Game Creators
88 Another Perspective Aug 8, 2014 $5.99N/A (N/A)20,000 .. 50,00000:00 (00:00)ShaunJSShaunJS, Digerati Distribution
89 Cannons Lasers Rockets Aug 25, 2014 FreeN/A (N/A)200,000 .. 500,00000:00 (00:00)Net Games LaboratoryNet Games Distribution LTD
90 Morphopolis Aug 14, 2014 $3.99N/A (N/A)200,000 .. 500,00000:00 (00:00)Dan Walters, Ceri WilliamsDan Walters
91 Max Gentlemen Aug 21, 2014 FreeN/A (N/A)200,000 .. 500,00000:00 (00:00)The Men Who Wear Many HatsThe Men Who Wear Many Hats
92 GamersGoMakers Aug 8, 2014 $8.99N/A (N/A)0 .. 20,00000:00 (00:00)gnifrebel Games UGgnifrebel Games UG
93 Rex Rocket Aug 5, 2014 $4.99N/A (N/A)20,000 .. 50,00000:00 (00:00)Castle Pixel, LLC.Castle Pixel, LLC.
94 Voyage: Journey to the Moon Aug 29, 2014 $4.99N/A (N/A)20,000 .. 50,00000:00 (00:00)MicroidsMicroids
95 Train Town Aug 26, 2014 $2.99N/A (N/A)0 .. 20,00000:00 (00:00)N3V GamesN3V Games
96 Northmark: Hour of the Wolf Aug 2, 2014 $9.99N/A (N/A)20,000 .. 50,00000:00 (00:00)Rake in GrassRake in Grass
97 Z Steel Soldiers Aug 1, 2014 $12.99N/A (N/A)50,000 .. 100,00000:00 (00:00)TickTock GamesKISS ltd, Kavcom
98 Millennium 3 - Cry Wolf Aug 29, 2014 $5.99N/A (N/A)20,000 .. 50,00000:00 (00:00)Aldorlea GamesAldorlea Games
99 The Expendabros Aug 5, 2014 FreeN/A (N/A)2,000,000 .. 5,000,00000:00 (00:00)Free LivesDevolver Digital
100 Detective Grimoire Aug 18, 2014 $6.99N/A (N/A)50,000 .. 100,00000:00 (00:00)SFB GamesSFB Games
101 World of Diving Aug 26, 2014 $19.99N/A (N/A)20,000 .. 50,00000:00 (00:00)Vertigo GamesVertigo Games
102 Cricket Captain 2014 Aug 8, 2014 $9.99N/A (N/A)0 .. 20,00000:00 (00:00)Childish ThingsKISS ltd
103 Kingdom Tales 2 Aug 7, 2014 $6.99N/A (N/A)0 .. 20,00000:00 (00:00)Cateia GamesLibredia Entertainment
104 Shan Gui (山桂) Aug 19, 2014 $0.99N/A (N/A)50,000 .. 100,00000:00 (00:00)Magenta FactoryJu Cai
105 Amazing Princess Sarah Aug 18, 2014 $4.99N/A (N/A)0 .. 20,00000:00 (00:00)Haruneko EntertainmentHaruneko Entertainment
106 Residue: Final Cut Aug 1, 2014 $1.99N/A (N/A)20,000 .. 50,00000:00 (00:00)The Working PartsThe Working Parts
107 ACE - Arena: Cyber Evolution Aug 18, 2014 N/AN/A (N/A)200,000 .. 500,00000:00 (00:00)Spearhead GamesSpearhead Games
108 Choice of the Deathless Aug 29, 2014 $4.99N/A (N/A)20,000 .. 50,00000:00 (00:00)Choice of GamesChoice of Games
109 Heavy Fire: Afghanistan Aug 15, 2014 $2.99N/A (N/A)50,000 .. 100,00000:00 (00:00)TeyonMastiff
110 Colossal Kaiju Combat: Kaijuland Battles Aug 11, 2014 $4.99N/A (N/A)0 .. 20,00000:00 (00:00)Sunstone Games, LLC.Sunstone Games, LLC.
111 Blinding Dark Aug 12, 2014 $9.99N/A (N/A)20,000 .. 50,00000:00 (00:00)Games HutBulkyPix
112 Cubic Castles Aug 13, 2014 FreeN/A (N/A)500,000 .. 1,000,00000:00 (00:00)Cosmic Cow LLCCosmic Cow LLC
Overview
Help

Owners: Estimated number of people owning this game. The number might be way too small for new releases and sometimes way too big for games that had free weekend event recently. Read more on About page.

Playtime: Average hours played in total per person that have actually launched this game since March 2009. This time is calculated for the whole lifetime, not for the particular year.

Average score: Average users and metacritic score for all games with this score assigned.

Average playtime: Average lifetime playtime for all games where this data is available.

Games this year: Self-explaining - number of games released this year. Please note that it also includes software, but doesn't include DLC. Only inculdes games with sales data available.

Total copies owned: Refers to total copies of games released this year acquired by users for the lifetime. Includes copies sold, downloaded for free and given out.

This number might be too small for recently released games or too big for games that had a free weekend in the last couple of months.